Time;durP1;ratioP1;P1;durP2;ratioP2;P2;SDS_P1;SDS_P2;PMS_P1;PMS_P2;Temp;Humidity;BMP_temperature;BMP_pressure;BME280_temperature;BME280_humidity;BME280_pressure;Samples;Min_cycle;Max_cycle;Signal;HPM_P1;HPM_P2
2022/07/02 00:00:05;;;;;;;6.32;1.65;;;;;;;16.04;100.00;100025.09;6195848;22;20012;-88
2022/07/02 00:02:41;;;;;;;4.10;2.13;;;;;;;16.02;100.00;100063.94;6223610;22;20012;-84
2022/07/02 00:05:07;;;;;;;4.85;1.40;;;;;;;15.88;100.00;100068.22;6220716;22;20540;-86
2022/07/02 00:07:33;;;;;;;3.25;1.63;;;;;;;15.90;100.00;100098.50;6271457;22;20038;-85
2022/07/02 00:09:59;;;;;;;4.55;1.23;;;;;;;15.92;100.00;100101.59;6245126;22;20012;-86
2022/07/02 00:12:27;;;;;;;2.38;1.48;;;;;;;15.91;100.00;100111.25;6246178;22;20007;-86
2022/07/02 00:14:56;;;;;;;1.92;1.40;;;;;;;15.99;100.00;100118.03;6246822;22;20088;-87
2022/07/02 00:17:22;;;;;;;2.70;1.23;;;;;;;16.01;100.00;100107.19;6245833;22;20422;-88
2022/07/02 00:19:48;;;;;;;2.67;1.52;;;;;;;16.07;100.00;100125.63;6246987;22;20019;-89
2022/07/02 00:22:15;;;;;;;2.38;1.58;;;;;;;16.01;100.00;100115.56;6220377;22;20008;-87
2022/07/02 00:24:41;;;;;;;2.13;1.40;;;;;;;16.02;100.00;100117.09;6246159;22;20007;-89
2022/07/02 00:27:09;;;;;;;2.53;1.50;;;;;;;16.01;100.00;100130.34;6245927;22;20087;-86
2022/07/02 00:29:44;;;;;;;1.75;1.30;;;;;;;15.88;100.00;100112.19;6272421;22;20417;-86
2022/07/02 00:32:10;;;;;;;2.60;1.45;;;;;;;16.01;100.00;100127.53;6245778;22;20007;-87
2022/07/02 00:34:39;;;;;;;2.67;1.35;;;;;;;16.06;100.00;100128.88;6221175;22;20030;-87
2022/07/02 00:37:08;;;;;;;1.88;1.40;;;;;;;16.07;100.00;100130.44;6246857;22;20008;-86
2022/07/02 00:39:34;;;;;;;3.75;1.52;;;;;;;16.10;100.00;100143.50;6222033;22;20016;-86
2022/07/02 00:41:59;;;;;;;2.53;1.40;;;;;;;16.08;100.00;100134.81;6247393;22;20014;-86
2022/07/02 00:44:25;;;;;;;3.90;1.70;;;;;;;16.08;100.00;100115.22;6247352;22;20012;-85
2022/07/02 00:46:52;;;;;;;2.38;1.33;;;;;;;16.13;100.00;100145.38;6274536;22;20034;-86
2022/07/02 00:49:18;;;;;;;3.92;1.58;;;;;;;16.16;100.00;100108.03;6247837;22;20011;-87
2022/07/02 00:51:44;;;;;;;3.25;1.70;;;;;;;16.12;100.00;100124.22;6274627;22;20069;-86
2022/07/02 00:54:09;;;;;;;3.88;1.70;;;;;;;16.12;100.00;100132.63;6274114;22;20050;-86
2022/07/02 00:56:35;;;;;;;3.78;1.60;;;;;;;16.07;100.00;100124.84;6197491;22;20002;-86
2022/07/02 00:59:02;;;;;;;1.85;1.55;;;;;;;16.15;100.00;100137.25;6247601;22;20008;-88
2022/07/02 01:04:07;;;;;;;3.50;1.60;;;;;;;16.16;100.00;100150.00;6268299;22;20051;-88
2022/07/02 01:06:33;;;;;;;3.03;1.60;;;;;;;16.21;100.00;100171.75;6248440;22;20098;-88
2022/07/02 01:11:45;;;;;;;3.80;1.58;;;;;;;16.34;100.00;100172.31;6227194;22;20354;-87
2022/07/02 01:14:11;;;;;;;2.53;1.50;;;;;;;16.32;100.00;100178.41;6247925;22;20022;-86
2022/07/02 01:16:37;;;;;;;1.63;1.52;;;;;;;16.23;100.00;100169.25;6275612;22;20019;-87
2022/07/02 01:19:04;;;;;;;1.80;1.35;;;;;;;16.22;100.00;100187.28;6248038;22;20007;-87
2022/07/02 01:21:29;;;;;;;4.43;1.63;;;;;;;16.16;100.00;100180.78;6248520;22;20356;-86
2022/07/02 01:23:55;;;;;;;2.25;1.50;;;;;;;16.19;100.00;100193.84;6274520;22;20007;-86
2022/07/02 01:26:20;;;;;;;2.38;1.63;;;;;;;16.13;100.00;100176.16;6274784;22;20038;-86
2022/07/02 01:28:46;;;;;;;3.28;1.80;;;;;;;16.07;100.00;100198.38;6247623;22;20014;-86
2022/07/02 01:31:11;;;;;;;2.95;1.75;;;;;;;16.13;100.00;100190.91;6275001;22;20008;-86
2022/07/02 01:33:37;;;;;;;2.20;1.70;;;;;;;16.09;100.00;100195.91;6247788;22;20479;-85
2022/07/02 01:36:02;;;;;;;1.92;1.60;;;;;;;16.10;100.00;100174.25;6274671;22;20010;-86
2022/07/02 01:38:28;;;;;;;4.53;1.70;;;;;;;16.09;100.00;100167.91;6275098;22;20416;-86
2022/07/02 01:41:38;;;;;;;3.17;1.60;;;;;;;16.04;100.00;100165.75;6247934;22;20010;-93
2022/07/02 01:43:39;;;;;;;3.28;1.65;;;;;;;16.14;100.00;100189.66;6253297;22;20023;-92
2022/07/02 01:46:04;;;;;;;3.75;1.85;;;;;;;16.10;100.00;100160.28;6249404;22;20015;-91
2022/07/02 01:48:30;;;;;;;1.90;1.70;;;;;;;16.07;100.00;100181.59;6276676;22;19999;-91
2022/07/02 01:50:55;;;;;;;2.45;1.70;;;;;;;16.04;100.00;100173.38;6224022;22;20008;-93
2022/07/02 01:53:21;;;;;;;3.50;1.85;;;;;;;16.01;100.00;100171.53;6276151;22;20010;-91
2022/07/02 01:55:46;;;;;;;2.63;1.83;;;;;;;16.08;100.00;100196.38;6276928;22;20079;-93
2022/07/02 01:58:14;;;;;;;2.08;1.70;;;;;;;16.05;100.00;100177.72;6248873;22;20010;-91
2022/07/02 02:00:40;;;;;;;2.60;1.70;;;;;;;15.97;100.00;100177.28;6248592;22;20701;-87
2022/07/02 02:03:05;;;;;;;3.03;2.28;;;;;;;16.01;100.00;100188.31;6246119;22;20038;-86
2022/07/02 02:05:31;;;;;;;2.30;1.80;;;;;;;15.97;100.00;100196.09;6227358;22;20023;-86
2022/07/02 02:07:57;;;;;;;2.83;1.63;;;;;;;15.92;100.00;100197.50;6304744;22;20061;-86
2022/07/02 02:10:22;;;;;;;3.10;1.70;;;;;;;15.94;100.00;100191.41;6305582;22;20465;-85
2022/07/02 02:12:48;;;;;;;2.25;1.90;;;;;;;15.94;100.00;100200.59;6304207;22;20015;-86
2022/07/02 02:15:13;;;;;;;2.40;1.60;;;;;;;15.92;100.00;100207.91;6277935;22;20514;-85
2022/07/02 02:17:39;;;;;;;3.33;1.70;;;;;;;15.82;100.00;100185.53;6278374;22;20019;-86
2022/07/02 02:20:05;;;;;;;3.10;1.75;;;;;;;15.90;100.00;100196.41;6278072;22;20003;-90
2022/07/02 02:22:30;;;;;;;2.75;2.00;;;;;;;15.81;100.00;100195.16;6253387;22;20064;-91
2022/07/02 02:24:56;;;;;;;3.35;1.70;;;;;;;15.84;100.00;100185.88;6305518;22;20090;-91
2022/07/02 02:27:21;;;;;;;2.97;1.67;;;;;;;15.81;100.00;100197.97;6306373;22;20337;-90
2022/07/02 02:29:47;;;;;;;2.50;1.73;;;;;;;15.86;100.00;100207.75;6306491;22;20045;-91
2022/07/02 02:32:12;;;;;;;3.65;1.80;;;;;;;15.88;100.00;100221.28;6305964;22;20018;-91
2022/07/02 02:34:38;;;;;;;1.85;1.60;;;;;;;15.85;100.00;100201.38;6306386;22;20000;-92
2022/07/02 02:37:03;;;;;;;2.28;1.73;;;;;;;15.86;100.00;100216.91;6252977;22;20460;-91
2022/07/02 02:39:29;;;;;;;2.95;1.50;;;;;;;15.84;100.00;100219.44;6279781;22;20076;-91
2022/07/02 02:41:54;;;;;;;2.28;1.60;;;;;;;15.84;100.00;100219.44;6280503;22;20033;-90
2022/07/02 02:44:21;;;;;;;3.15;1.60;;;;;;;15.86;100.00;100232.94;6253140;22;20494;-93
2022/07/02 02:46:46;;;;;;;1.33;1.23;;;;;;;15.94;100.00;100256.53;6305973;22;20448;-90
2022/07/02 02:49:12;;;;;;;4.20;1.48;;;;;;;15.93;100.00;100255.00;6278070;22;20007;-90
2022/07/02 02:51:37;;;;;;;4.15;1.70;;;;;;;15.96;100.00;100270.06;6305584;22;20007;-90
2022/07/02 02:54:03;;;;;;;2.95;1.55;;;;;;;15.96;99.97;100258.88;6252374;22;20467;-91
2022/07/02 02:56:28;;;;;;;2.30;1.52;;;;;;;15.98;99.16;100251.56;6306362;22;19995;-92
2022/07/02 02:58:54;;;;;;;1.95;1.42;;;;;;;15.94;99.33;100267.72;6305822;22;20007;-91
2022/07/02 03:01:19;;;;;;;2.10;1.60;;;;;;;15.94;99.31;100275.34;6305608;22;20379;-90
2022/07/02 03:03:45;;;;;;;2.00;1.60;;;;;;;15.99;99.57;100274.72;6253698;22;20019;-90
2022/07/02 03:06:10;;;;;;;2.67;1.40;;;;;;;15.90;98.42;100271.94;6305967;22;20314;-90
2022/07/02 03:08:36;;;;;;;1.60;1.50;;;;;;;15.91;99.15;100281.88;6305366;22;20090;-90
2022/07/02 03:11:02;;;;;;;1.95;1.48;;;;;;;15.97;98.17;100294.78;6306447;22;20039;-90
2022/07/02 03:13:27;;;;;;;2.45;1.60;;;;;;;15.95;98.80;100285.28;6278449;22;20101;-86
2022/07/02 03:15:53;;;;;;;1.70;1.42;;;;;;;15.92;98.75;100297.44;6277730;22;20019;-86
2022/07/02 03:18:19;;;;;;;2.00;1.50;;;;;;;15.88;99.56;100305.19;6304609;22;20087;-86
2022/07/02 03:20:44;;;;;;;2.92;1.45;;;;;;;15.82;99.49;100293.84;6304736;22;20022;-85
2022/07/02 03:23:10;;;;;;;2.63;1.60;;;;;;;15.84;98.27;100292.16;6304660;22;20039;-86
2022/07/02 03:25:35;;;;;;;2.08;1.50;;;;;;;15.81;98.56;100281.88;6277772;22;20429;-85
2022/07/02 03:28:01;;;;;;;2.17;1.40;;;;;;;15.86;97.97;100314.81;6303660;22;20014;-85
2022/07/02 03:30:26;;;;;;;2.15;1.23;;;;;;;15.88;97.73;100308.00;6305318;22;20479;-86
2022/07/02 03:32:52;;;;;;;2.63;1.48;;;;;;;15.90;97.33;100322.28;6304311;22;20037;-85
2022/07/02 03:35:17;;;;;;;3.35;1.42;;;;;;;15.94;97.55;100322.91;6277803;22;20113;-91
2022/07/02 03:37:43;;;;;;;3.00;1.60;;;;;;;15.92;97.25;100322.59;6303374;22;20097;-89
2022/07/02 03:40:08;;;;;;;2.05;1.40;;;;;;;15.91;96.42;100323.84;6277821;22;20007;-90
2022/07/02 03:42:34;;;;;;;3.03;1.30;;;;;;;15.98;95.30;100320.72;6302954;22;20030;-91
2022/07/02 03:45:00;;;;;;;2.25;1.55;;;;;;;16.03;95.70;100328.50;6278505;22;20659;-90
2022/07/02 03:47:25;;;;;;;1.58;1.48;;;;;;;15.94;95.78;100317.31;6278231;22;20061;-90
2022/07/02 03:49:51;;;;;;;1.73;1.42;;;;;;;15.98;96.25;100317.91;6304702;22;20064;-87
2022/07/02 03:52:16;;;;;;;2.03;1.40;;;;;;;15.98;95.29;100320.72;6303821;22;20011;-88
2022/07/02 03:54:42;;;;;;;1.30;1.20;;;;;;;15.98;94.89;100317.91;6277279;22;20007;-87
2022/07/02 03:57:07;;;;;;;2.42;1.40;;;;;;;16.03;94.58;100322.91;6303289;22;20011;-86
2022/07/02 03:59:33;;;;;;;1.48;1.35;;;;;;;16.05;95.10;100331.63;6304459;22;20007;-88
2022/07/02 04:01:58;;;;;;;3.30;1.83;;;;;;;16.09;93.97;100340.63;6304921;22;20460;-87
2022/07/02 04:04:24;;;;;;;1.48;1.20;;;;;;;16.09;93.75;100340.63;6336007;22;20087;-87
2022/07/02 04:06:49;;;;;;;1.85;1.30;;;;;;;16.12;93.37;100351.66;6336979;22;20011;-87
2022/07/02 04:09:15;;;;;;;2.97;1.40;;;;;;;16.07;93.37;100345.91;6337153;22;20432;-87
2022/07/02 04:11:41;;;;;;;2.47;1.40;;;;;;;16.12;92.99;100342.50;6337662;22;20459;-85
2022/07/02 04:14:06;;;;;;;3.33;1.23;;;;;;;16.08;93.47;100347.47;6337747;22;20045;-87
2022/07/02 04:16:32;;;;;;;1.38;1.25;;;;;;;16.13;92.51;100358.03;6337893;22;20085;-89
2022/07/02 04:18:57;;;;;;;1.45;1.30;;;;;;;16.16;92.31;100352.28;6338132;22;20007;-88
2022/07/02 04:21:23;;;;;;;1.60;1.30;;;;;;;16.22;92.17;100355.22;6337534;22;20057;-88
2022/07/02 04:23:48;;;;;;;2.28;1.30;;;;;;;16.19;91.98;100350.56;6338395;22;20480;-89
2022/07/02 04:26:14;;;;;;;1.88;1.42;;;;;;;16.20;90.51;100350.09;6284826;22;20014;-87
2022/07/02 04:28:39;;;;;;;1.42;1.20;;;;;;;16.25;91.01;100365.50;6338036;22;20006;-86
2022/07/02 04:31:05;;;;;;;1.48;1.38;;;;;;;16.26;90.61;100362.22;6284787;22;20371;-85
2022/07/02 04:33:30;;;;;;;1.52;1.27;;;;;;;16.29;90.87;100371.72;6309814;22;20018;-86
2022/07/02 04:35:56;;;;;;;1.30;1.20;;;;;;;16.31;90.72;100380.41;6337712;22;20010;-85
2022/07/02 04:38:22;;;;;;;3.10;1.50;;;;;;;16.39;89.57;100380.84;6336682;22;20006;-86
2022/07/02 04:40:47;;;;;;;2.42;1.38;;;;;;;16.39;90.04;100372.47;6338176;22;20352;-86
2022/07/02 04:43:13;;;;;;;1.52;1.30;;;;;;;16.40;89.11;100372.00;6336960;22;20397;-86
2022/07/02 04:45:38;;;;;;;1.70;1.40;;;;;;;16.36;89.61;100374.19;6337861;22;20015;-86
2022/07/02 04:48:04;;;;;;;3.17;1.50;;;;;;;16.41;90.18;100376.38;6309728;22;20016;-85
2022/07/02 04:50:30;;;;;;;2.45;1.35;;;;;;;16.34;88.97;100385.84;6310382;22;20007;-88
2022/07/02 04:52:56;;;;;;;2.78;1.40;;;;;;;16.47;89.68;100399.69;6309505;22;20002;-84
2022/07/02 04:55:21;;;;;;;1.23;1.10;;;;;;;16.54;88.64;100390.19;6334945;22;20474;-85
2022/07/02 04:57:47;;;;;;;1.33;1.20;;;;;;;16.63;88.15;100399.38;6335556;22;20082;-83
2022/07/02 05:00:13;;;;;;;0.95;0.95;;;;;;;16.72;87.21;100390.94;6308384;22;20007;-84
2022/07/02 05:02:38;;;;;;;4.07;1.20;;;;;;;16.84;86.99;100405.22;6335743;22;20015;-84
2022/07/02 05:05:04;;;;;;;1.65;1.40;;;;;;;16.91;85.96;100410.50;6336097;22;20015;-85
2022/07/02 05:07:30;;;;;;;1.35;1.17;;;;;;;16.93;85.68;100394.00;6309017;22;20014;-84
2022/07/02 05:09:58;;;;;;;4.28;1.33;;;;;;;16.99;84.75;100401.28;6337139;22;20085;-85
2022/07/02 05:12:24;;;;;;;2.53;1.20;;;;;;;17.00;85.08;100396.47;6309001;22;20199;-85
2022/07/02 05:14:50;;;;;;;3.45;1.25;;;;;;;17.10;84.54;100417.63;6309954;22;19999;-85
2022/07/02 05:17:15;;;;;;;1.73;1.13;;;;;;;17.22;82.61;100416.63;6310776;22;20011;-85
2022/07/02 05:19:41;;;;;;;1.88;1.40;;;;;;;17.36;83.26;100418.75;6337466;22;20317;-85
2022/07/02 05:22:06;;;;;;;1.85;1.10;;;;;;;17.35;83.12;100422.78;6309549;22;20003;-84
2022/07/02 05:24:32;;;;;;;2.53;1.10;;;;;;;17.52;81.68;100428.78;6310017;22;20017;-85
2022/07/02 05:26:57;;;;;;;2.97;1.73;;;;;;;17.52;81.71;100423.97;6309858;22;20019;-86
2022/07/02 05:29:23;;;;;;;2.45;1.33;;;;;;;17.76;81.66;100428.84;6337074;22;20019;-83
2022/07/02 05:31:48;;;;;;;2.47;1.40;;;;;;;17.72;79.97;100437.44;6336658;22;20030;-83
2022/07/02 05:34:14;;;;;;;1.85;1.30;;;;;;;18.02;80.23;100443.97;6337357;22;20010;-84
2022/07/02 05:36:39;;;;;;;1.85;1.13;;;;;;;18.13;79.11;100441.38;6309268;22;20061;-84
2022/07/02 05:39:05;;;;;;;2.25;1.20;;;;;;;18.16;77.93;100446.03;6282781;22;20011;-84
2022/07/02 05:41:30;;;;;;;3.75;1.60;;;;;;;18.21;78.63;100448.19;6336612;22;20077;-86
2022/07/02 05:43:56;;;;;;;1.38;1.20;;;;;;;18.34;78.21;100431.84;6336107;22;20345;-85
2022/07/02 05:46:21;;;;;;;1.60;1.40;;;;;;;18.48;76.92;100442.31;6337199;22;20056;-84
2022/07/02 05:48:47;;;;;;;2.08;1.20;;;;;;;18.60;77.04;100437.75;6336635;22;20011;-86
2022/07/02 05:51:13;;;;;;;3.00;1.50;;;;;;;18.51;77.25;100444.19;6309204;22;20015;-87
2022/07/02 05:53:38;;;;;;;1.50;1.30;;;;;;;18.56;76.09;100437.91;6337687;22;20437;-87
2022/07/02 05:56:04;;;;;;;2.58;1.25;;;;;;;18.87;75.57;100448.72;6309959;22;20007;-87
2022/07/02 05:58:29;;;;;;;3.03;1.38;;;;;;;18.68;74.96;100438.16;6337028;22;20397;-87
2022/07/02 06:00:55;;;;;;;3.90;1.38;;;;;;;18.75;74.52;100449.78;6309483;22;20455;-87
2022/07/02 06:03:21;;;;;;;1.75;1.35;;;;;;;18.95;74.60;100443.47;6309026;22;20011;-86
2022/07/02 06:08:30;;;;;;;1.92;1.48;;;;;;;19.33;72.92;100431.34;6313274;22;20015;-86
2022/07/02 06:10:56;;;;;;;4.00;1.85;;;;;;;19.30;72.81;100419.00;6336888;22;20013;-88
2022/07/02 06:13:21;;;;;;;4.07;1.55;;;;;;;19.37;72.52;100435.47;6283702;22;20029;-88
2022/07/02 06:15:47;;;;;;;4.53;1.88;;;;;;;19.52;72.73;100435.47;6310042;22;20015;-85
2022/07/02 06:18:13;;;;;;;2.20;1.52;;;;;;;19.71;72.18;100436.00;6283737;22;20437;-86
2022/07/02 06:20:39;;;;;;;4.10;2.00;;;;;;;19.73;72.01;100423.00;6311418;22;20384;-87
2022/07/02 06:23:05;;;;;;;3.90;1.50;;;;;;;19.85;71.48;100423.91;6309889;22;20034;-86
2022/07/02 06:25:30;;;;;;;3.25;1.70;;;;;;;20.03;71.39;100432.06;6336899;22;20433;-88
2022/07/02 06:27:56;;;;;;;3.05;1.70;;;;;;;19.95;71.66;100430.94;6309667;22;20042;-87
2022/07/02 06:30:23;;;;;;;4.05;2.03;;;;;;;19.98;71.97;100427.91;6309110;22;19999;-89
2022/07/02 06:32:49;;;;;;;2.95;1.80;;;;;;;20.32;71.09;100422.72;6309770;22;20489;-87
2022/07/02 06:35:15;;;;;;;2.45;1.88;;;;;;;20.13;71.06;100435.53;6309057;22;20015;-87
2022/07/02 06:37:42;;;;;;;2.30;1.52;;;;;;;20.17;70.86;100442.50;6335061;22;20002;-89
2022/07/02 06:40:08;;;;;;;2.90;1.73;;;;;;;20.44;70.55;100439.28;6336286;22;20038;-89
2022/07/02 06:42:34;;;;;;;3.17;2.17;;;;;;;20.30;69.46;100456.28;6335972;22;20048;-87
2022/07/02 06:45:00;;;;;;;3.35;2.08;;;;;;;20.47;69.96;100455.19;6307613;22;20448;-86
2022/07/02 06:47:27;;;;;;;2.75;2.05;;;;;;;20.76;69.88;100456.25;6283104;22;20035;-86
2022/07/02 06:49:57;;;;;;;4.30;1.95;;;;;;;21.17;69.05;100454.88;6308253;22;20011;-87
2022/07/02 06:52:22;;;;;;;3.03;1.80;;;;;;;21.36;68.19;100464.50;6307555;22;20022;-88
2022/07/02 06:54:48;;;;;;;2.45;1.85;;;;;;;21.28;66.96;100463.41;6307587;22;20091;-89
2022/07/02 06:57:14;;;;;;;2.78;1.90;;;;;;;21.06;67.90;100460.41;6335341;22;20018;-88
2022/07/02 06:59:39;;;;;;;2.70;1.98;;;;;;;21.52;66.72;100471.56;6308022;22;20014;-88
2022/07/02 07:02:06;;;;;;;3.08;1.70;;;;;;;21.75;65.24;100475.31;6306920;22;20014;-89
2022/07/02 07:04:34;;;;;;;5.15;1.90;;;;;;;21.76;65.28;100493.78;6334217;22;20467;-89
2022/07/02 07:07:03;;;;;;;3.28;1.90;;;;;;;21.70;64.60;100473.22;6306922;22;20014;-84
2022/07/02 07:09:34;;;;;;;1.83;1.67;;;;;;;21.98;64.58;100493.19;6333921;22;20014;-85
2022/07/02 07:12:00;;;;;;;3.13;1.92;;;;;;;22.10;64.85;100492.75;6307257;22;20011;-85
2022/07/02 07:14:35;;;;;;;2.35;1.50;;;;;;;21.74;65.57;100470.94;6254561;22;20015;-85
2022/07/02 07:17:02;;;;;;;3.58;1.65;;;;;;;21.62;66.38;100474.97;6307126;22;20097;-84
2022/07/02 07:19:27;;;;;;;2.40;1.73;;;;;;;21.15;66.05;100498.97;6255534;22;20201;-84
2022/07/02 07:21:53;;;;;;;2.50;1.50;;;;;;;20.96;66.43;100487.22;6307406;22;20330;-88
2022/07/02 07:24:19;;;;;;;1.88;1.40;;;;;;;20.84;65.58;100502.47;6307738;22;20512;-87
2022/07/02 07:26:44;;;;;;;1.58;1.40;;;;;;;20.68;66.64;100500.25;6307502;22;20003;-88
2022/07/02 07:29:10;;;;;;;2.17;1.30;;;;;;;20.81;67.12;100503.47;6306551;22;20089;-88
2022/07/02 07:31:36;;;;;;;2.63;1.73;;;;;;;20.76;66.78;100507.00;6307652;22;20025;-87
2022/07/02 07:34:02;;;;;;;1.83;1.40;;;;;;;20.68;66.74;100505.88;6309018;22;20067;-87
2022/07/02 07:36:28;;;;;;;2.58;1.30;;;;;;;21.05;68.20;100501.16;6308812;22;20007;-89
2022/07/02 07:38:53;;;;;;;1.40;1.20;;;;;;;21.83;65.26;100490.50;6309276;22;20436;-88
2022/07/02 07:41:21;;;;;;;3.88;1.33;;;;;;;22.15;61.53;100511.78;6308364;22;20274;-84
2022/07/02 07:43:46;;;;;;;2.75;1.30;;;;;;;22.51;61.38;100503.72;6308635;22;20013;-85
2022/07/02 07:46:12;;;;;;;3.00;1.52;;;;;;;22.61;60.47;100502.97;6335615;22;20077;-84
2022/07/02 07:48:37;;;;;;;1.30;1.20;;;;;;;22.32;60.36;100506.22;6331185;22;20331;-83
2022/07/02 07:51:05;;;;;;;2.20;1.27;;;;;;;22.40;60.21;100527.06;6303751;22;20064;-84
2022/07/02 07:53:31;;;;;;;3.60;1.38;;;;;;;22.45;59.29;100511.38;6306398;22;20022;-84
2022/07/02 07:55:57;;;;;;;2.40;1.42;;;;;;;22.43;59.02;100522.44;6306449;22;20060;-83
2022/07/02 07:58:23;;;;;;;1.77;1.30;;;;;;;22.85;59.38;100522.34;6333541;22;19999;-83
2022/07/02 08:00:48;;;;;;;2.78;1.30;;;;;;;22.91;58.37;100537.28;6334540;22;20071;-84
2022/07/02 08:03:17;;;;;;;2.35;1.23;;;;;;;23.00;59.22;100517.25;6334276;22;20022;-84
2022/07/02 08:05:47;;;;;;;1.98;1.45;;;;;;;22.69;58.84;100520.25;6280770;22;20041;-84
2022/07/02 08:08:13;;;;;;;1.48;1.20;;;;;;;22.41;59.57;100508.81;6306372;22;20368;-85
2022/07/02 08:10:39;;;;;;;1.70;1.30;;;;;;;22.65;58.59;100523.28;6277254;22;20735;-85
2022/07/02 08:13:04;;;;;;;2.50;1.40;;;;;;;22.37;57.78;100513.94;6305668;22;19999;-84
2022/07/02 08:15:30;;;;;;;1.67;1.30;;;;;;;22.25;58.80;100520.81;6332394;22;20014;-84
2022/07/02 08:17:55;;;;;;;3.45;1.40;;;;;;;22.17;59.44;100522.56;6305866;22;20430;-84
2022/07/02 08:20:21;;;;;;;2.95;1.40;;;;;;;22.08;59.29;100523.53;6306577;22;20015;-84
2022/07/02 08:22:47;;;;;;;3.20;1.63;;;;;;;21.74;60.62;100535.88;6334085;22;20160;-84
2022/07/02 08:25:15;;;;;;;2.13;1.50;;;;;;;21.81;60.93;100515.63;6333828;22;20026;-85
2022/07/02 08:27:42;;;;;;;2.05;1.60;;;;;;;21.99;60.12;100526.59;6333926;22;20019;-85
2022/07/02 08:30:08;;;;;;;3.35;1.60;;;;;;;22.14;59.93;100526.41;6333548;22;20014;-84
2022/07/02 08:32:33;;;;;;;2.40;1.55;;;;;;;22.21;59.01;100537.22;6278138;22;20037;-85
2022/07/02 08:34:59;;;;;;;1.95;1.48;;;;;;;22.57;57.44;100546.91;6304665;22;20028;-84
2022/07/02 08:37:25;;;;;;;3.17;1.30;;;;;;;22.74;57.09;100534.41;6302623;22;20589;-85
2022/07/02 08:39:51;;;;;;;2.13;1.50;;;;;;;23.02;57.51;100539.34;6302951;22;20060;-86
2022/07/02 08:42:36;;;;;;;2.38;1.50;;;;;;;22.91;56.42;100545.78;6303409;22;20015;-85
2022/07/02 08:45:03;;;;;;;3.75;1.20;;;;;;;22.68;55.29;100558.28;6331633;22;20490;-85
2022/07/02 08:47:29;;;;;;;1.90;1.50;;;;;;;22.78;57.45;100545.47;6305014;22;20038;-85
2022/07/02 08:49:57;;;;;;;2.80;1.40;;;;;;;22.87;54.21;100552.97;6305741;22;20011;-85
2022/07/02 08:52:24;;;;;;;1.50;1.30;;;;;;;22.73;54.67;100557.53;6304722;22;20318;-85
2022/07/02 08:54:51;;;;;;;4.60;1.50;;;;;;;22.59;56.24;100566.97;6334659;22;20001;-85
2022/07/02 08:57:16;;;;;;;2.55;1.48;;;;;;;22.64;56.29;100552.09;6335817;22;20011;-85
2022/07/02 08:59:43;;;;;;;2.13;1.50;;;;;;;22.66;55.73;100555.16;6336058;22;20003;-85
2022/07/02 09:02:10;;;;;;;7.72;1.50;;;;;;;22.62;55.47;100563.13;6335772;22;20046;-85
2022/07/02 09:04:41;;;;;;;1.40;1.30;;;;;;;22.87;56.68;100553.72;6307551;22;20445;-85
2022/07/02 09:07:06;;;;;;;1.73;1.33;;;;;;;23.12;56.42;100557.66;6307672;22;20456;-84
2022/07/02 09:09:33;;;;;;;5.28;1.50;;;;;;;23.13;56.99;100554.28;6305689;22;20011;-84
2022/07/02 09:11:59;;;;;;;12.77;2.28;;;;;;;23.35;57.60;100561.28;6279725;22;20014;-83
2022/07/02 09:14:24;;;;;;;2.40;1.60;;;;;;;23.20;55.63;100548.16;6333790;22;20086;-83
2022/07/02 09:16:50;;;;;;;2.45;1.58;;;;;;;23.37;58.06;100559.50;6333590;22;20382;-85
2022/07/02 09:19:17;;;;;;;2.72;1.50;;;;;;;23.66;56.28;100561.06;6307464;22;20021;-84
2022/07/02 09:21:51;;;;;;;2.85;1.50;;;;;;;23.94;54.57;100546.91;6335684;22;20011;-84
2022/07/02 09:24:32;;;;;;;2.58;1.50;;;;;;;24.40;55.00;100551.94;6306274;22;20011;-83
2022/07/02 09:27:04;;;;;;;2.00;1.55;;;;;;;24.50;53.29;100544.72;6334977;22;20515;-85
2022/07/02 09:29:46;;;;;;;3.00;1.73;;;;;;;24.87;52.98;100552.81;6306696;22;20083;-83
2022/07/02 09:32:13;;;;;;;2.28;1.80;;;;;;;24.74;51.00;100530.69;6334786;22;20015;-84
2022/07/02 09:34:46;;;;;;;2.75;1.70;;;;;;;25.40;49.19;100531.53;6332751;22;20017;-84
2022/07/02 09:37:23;;;;;;;2.55;1.52;;;;;;;25.92;50.74;100526.44;6308073;22;20067;-84
2022/07/02 09:39:49;;;;;;;3.55;1.52;;;;;;;26.18;46.94;100533.69;6303365;22;20015;-86
2022/07/02 09:42:29;;;;;;;1.75;1.52;;;;;;;26.53;45.83;100533.53;6332283;22;20011;-85
2022/07/02 09:44:56;;;;;;;2.22;1.70;;;;;;;25.51;46.37;100535.09;6333051;22;20023;-83
2022/07/02 09:47:39;;;;;;;2.83;1.90;;;;;;;25.47;47.48;100548.03;6305710;22;20336;-85
2022/07/02 09:50:08;;;;;;;2.30;1.80;;;;;;;25.66;49.25;100536.78;6303802;22;20014;-86
2022/07/02 09:52:34;;;;;;;2.13;1.58;;;;;;;25.81;48.12;100537.94;6306655;22;20147;-83
2022/07/02 09:55:05;;;;;;;2.67;1.90;;;;;;;26.52;47.21;100537.72;6305998;22;20046;-86
2022/07/02 09:57:31;;;;;;;2.25;1.83;;;;;;;26.79;44.31;100539.44;6334702;22;20010;-86
2022/07/02 10:00:08;;;;;;;3.75;1.60;;;;;;;26.66;45.14;100539.34;6306638;22;20524;-85
2022/07/02 10:02:37;;;;;;;3.88;1.50;;;;;;;26.72;46.09;100534.34;6302036;22;20018;-84
2022/07/02 10:05:06;;;;;;;2.85;1.80;;;;;;;26.82;46.50;100526.94;6301076;22;20019;-84
2022/07/02 10:07:31;;;;;;;2.20;1.88;;;;;;;27.02;45.00;100531.34;6302164;22;20033;-84
2022/07/02 10:10:02;;;;;;;3.22;1.90;;;;;;;27.01;46.45;100526.22;6302737;22;19995;-84
2022/07/02 10:12:28;;;;;;;2.17;1.90;;;;;;;27.19;44.83;100526.19;6301947;22;20346;-84
2022/07/02 10:14:54;;;;;;;1.85;1.70;;;;;;;26.49;44.17;100533.06;6302234;22;20007;-85
2022/07/02 10:17:20;;;;;;;3.33;2.00;;;;;;;26.47;43.91;100534.94;6306357;22;20008;-88
2022/07/02 10:19:46;;;;;;;3.35;1.67;;;;;;;26.81;44.63;100528.25;6278064;22;20010;-89
2022/07/02 10:22:12;;;;;;;4.28;1.80;;;;;;;27.14;44.22;100529.09;6304303;22;20034;-88
2022/07/02 10:24:38;;;;;;;2.15;1.95;;;;;;;27.08;44.23;100514.97;6304445;22;20019;-88
2022/07/02 10:27:04;;;;;;;2.38;1.60;;;;;;;27.19;43.90;100523.34;6305964;22;20015;-89
2022/07/02 10:29:29;;;;;;;3.38;1.90;;;;;;;27.55;43.58;100518.13;6304741;22;20007;-89
2022/07/02 10:31:58;;;;;;;2.30;2.10;;;;;;;27.36;43.06;100514.53;6304065;22;20393;-89
2022/07/02 10:34:48;;;;;;;3.28;2.00;;;;;;;27.50;42.64;100518.97;6306947;22;20003;-89
2022/07/02 10:37:15;;;;;;;2.67;1.88;;;;;;;27.20;43.36;100509.88;6303669;22;20019;-88
2022/07/02 10:39:42;;;;;;;2.50;1.80;;;;;;;27.41;40.50;100507.97;6302021;22;20023;-89
2022/07/02 10:42:08;;;;;;;2.33;1.95;;;;;;;27.29;42.60;100501.72;6301392;22;20083;-88
2022/07/02 10:44:40;;;;;;;3.08;2.47;;;;;;;27.12;42.15;100514.66;6301519;22;20488;-88
2022/07/02 10:47:26;;;;;;;2.37;1.90;;;;;;;27.38;41.28;100509.03;6303160;22;20015;-87
2022/07/02 10:49:59;;;;;;;3.33;1.90;;;;;;;27.25;40.67;100509.78;6301560;22;20011;-87
2022/07/02 10:52:48;;;;;;;2.92;1.70;;;;;;;27.40;41.34;100500.75;6300762;22;20055;-88
2022/07/02 10:55:27;;;;;;;5.05;2.10;;;;;;;27.80;41.01;100499.53;6275526;22;20022;-84
2022/07/02 10:58:02;;;;;;;3.13;2.03;;;;;;;28.04;40.32;100495.72;6300679;22;20011;-84
2022/07/02 11:00:28;;;;;;;3.42;2.10;;;;;;;28.37;40.74;100500.00;6300408;22;20011;-84
2022/07/02 11:02:56;;;;;;;2.72;2.05;;;;;;;28.70;39.13;100487.16;6299976;22;20012;-85
2022/07/02 11:05:21;;;;;;;2.83;2.13;;;;;;;28.25;38.63;100498.72;6301337;22;20019;-84
2022/07/02 11:07:47;;;;;;;2.80;2.13;;;;;;;27.73;40.72;100493.72;6302587;22;20346;-86
2022/07/02 11:10:12;;;;;;;3.13;2.10;;;;;;;28.07;40.80;100499.53;6301286;22;20008;-86
2022/07/02 11:12:45;;;;;;;4.82;2.10;;;;;;;28.11;40.97;100494.31;6301129;22;20086;-86
2022/07/02 11:15:35;;;;;;;2.35;2.00;;;;;;;28.26;39.64;100488.84;6300959;22;20360;-86
2022/07/02 11:18:07;;;;;;;2.28;2.08;;;;;;;28.35;37.21;100491.22;6303727;22;20011;-84
2022/07/02 11:20:35;;;;;;;3.10;2.50;;;;;;;27.91;39.15;100487.16;6301448;22;20019;-84
2022/07/02 11:23:00;;;;;;;3.75;2.47;;;;;;;28.17;41.28;100483.56;6300830;22;20018;-85
2022/07/02 11:25:30;;;;;;;4.07;2.70;;;;;;;28.55;37.80;100476.25;6298185;22;20072;-85
2022/07/02 11:28:02;;;;;;;2.65;2.33;;;;;;;28.63;37.07;100477.13;6300582;22;20011;-85
2022/07/02 11:30:29;;;;;;;2.90;2.60;;;;;;;28.54;36.67;100471.91;6297448;22;20039;-83